createdAt,value
2022-11-24T00:02:31.525Z,99742.41
2022-11-24T00:05:38.380Z,99742.16
2022-11-24T00:08:41.879Z,99750.28
2022-11-24T00:11:43.537Z,99750.19
2022-11-24T00:14:46.990Z,99759.91
2022-11-24T00:17:48.571Z,99756.31
2022-11-24T00:20:53.066Z,99758.84
2022-11-24T00:23:55.043Z,99756.81
2022-11-24T00:26:56.580Z,99760.97
2022-11-24T00:29:59.501Z,99766.59
2022-11-24T00:33:03.429Z,99766.59
2022-11-24T00:36:05.421Z,99769.69
2022-11-24T00:39:14.806Z,99764.75
2022-11-24T00:42:17.032Z,99770.69
2022-11-24T00:45:18.629Z,99766.00
2022-11-24T00:48:20.310Z,99766.41
2022-11-24T00:51:24.909Z,99772.22
2022-11-24T00:54:26.452Z,99773.47
2022-11-24T00:57:27.995Z,99779.19
2022-11-24T01:00:29.681Z,99772.34
2022-11-24T01:03:31.606Z,99783.72
2022-11-24T01:06:35.226Z,99777.13
2022-11-24T01:09:37.766Z,99780.69
2022-11-24T01:12:39.698Z,99781.38
2022-11-24T01:15:41.411Z,99784.88
2022-11-24T01:18:43.197Z,99784.09
2022-11-24T01:21:45.025Z,99785.47
2022-11-24T01:24:46.669Z,99789.25
2022-11-24T01:27:48.234Z,99788.28
2022-11-24T01:31:05.240Z,99782.25
2022-11-24T01:34:07.162Z,99787.41
2022-11-24T01:37:08.782Z,99787.28
2022-11-24T01:40:10.995Z,99785.47
2022-11-24T01:43:21.394Z,99792.13
2022-11-24T01:46:45.158Z,99794.00
2022-11-24T01:49:50.857Z,99789.25
2022-11-24T01:52:55.419Z,99793.31
2022-11-24T01:55:58.030Z,99790.19
2022-11-24T01:59:01.739Z,99796.22
2022-11-24T02:02:03.869Z,99800.69
2022-11-24T02:05:15.745Z,99800.09
2022-11-24T02:08:42.436Z,99796.41
2022-11-24T02:11:44.674Z,99793.94
2022-11-24T02:14:46.371Z,99794.19
2022-11-24T02:17:48.014Z,99800.75
2022-11-24T02:20:49.641Z,99797.59
2022-11-24T02:24:13.296Z,99798.56
2022-11-24T02:27:14.912Z,99802.03
2022-11-24T02:30:17.625Z,99799.16
2022-11-24T02:33:20.816Z,99798.63
2022-11-24T02:36:22.417Z,99799.03
2022-11-24T02:39:24.127Z,99798.78
2022-11-24T02:42:28.387Z,99795.94
2022-11-24T02:45:31.367Z,99791.56
2022-11-24T02:48:32.993Z,99799.34
2022-11-24T02:51:34.704Z,99794.97
2022-11-24T02:54:36.702Z,99794.69
2022-11-24T02:57:38.610Z,99799.13
2022-11-24T03:00:41.350Z,99791.19
2022-11-24T03:03:43.526Z,99796.53
2022-11-24T03:06:45.113Z,99794.75
2022-11-24T03:09:47.095Z,99791.38
2022-11-24T03:12:48.682Z,99792.53
2022-11-24T03:15:50.268Z,99807.88
2022-11-24T03:18:52.975Z,99801.00
2022-11-24T03:21:54.558Z,99805.34
2022-11-24T03:24:56.124Z,99809.13
2022-11-24T03:27:58.283Z,99812.94
2022-11-24T03:30:59.956Z,99815.63
2022-11-24T03:34:01.621Z,99811.19
2022-11-24T03:37:03.240Z,99817.47
2022-11-24T03:40:05.341Z,99814.84
2022-11-24T03:43:06.931Z,99825.81
2022-11-24T03:46:08.674Z,99822.22
2022-11-24T03:49:10.547Z,99823.59
2022-11-24T03:52:12.365Z,99832.34
2022-11-24T03:55:14.002Z,99830.28
2022-11-24T03:58:15.644Z,99837.56
2022-11-24T04:01:17.279Z,99830.97
2022-11-24T04:04:19.574Z,99839.31
2022-11-24T04:07:21.296Z,99843.69
2022-11-24T04:10:26.296Z,99837.94
2022-11-24T04:13:28.504Z,99841.44
2022-11-24T04:16:30.146Z,99856.28
2022-11-24T04:19:31.716Z,99860.19
2022-11-24T04:22:33.499Z,99860.44
2022-11-24T04:25:35.784Z,99872.59
2022-11-24T04:28:38.515Z,99866.75
2022-11-24T04:31:40.105Z,99869.97
2022-11-24T04:34:41.736Z,99878.50
2022-11-24T04:37:43.331Z,99878.09
2022-11-24T04:40:44.974Z,99883.47
2022-11-24T04:43:49.373Z,99899.91
2022-11-24T04:46:51.053Z,99896.50
2022-11-24T04:49:53.589Z,99898.16
2022-11-24T04:52:55.164Z,99899.13
2022-11-24T04:55:56.721Z,99910.09
2022-11-24T04:58:58.375Z,99918.66
2022-11-24T05:01:59.966Z,99910.56
2022-11-24T05:05:01.670Z,99921.28
2022-11-24T05:08:03.482Z,99929.72
2022-11-24T05:11:06.773Z,99935.66
2022-11-24T05:14:08.423Z,99938.38
2022-11-24T05:17:09.998Z,99946.84
2022-11-24T05:20:11.663Z,99943.72
2022-11-24T05:23:13.314Z,99951.59
2022-11-24T05:26:14.881Z,99957.81
2022-11-24T05:29:16.517Z,99964.63
2022-11-24T05:32:18.131Z,99968.41
2022-11-24T05:35:19.765Z,99981.81
2022-11-24T05:38:22.918Z,99977.63
2022-11-24T05:41:24.491Z,99983.13
2022-11-24T05:44:26.074Z,99985.34
2022-11-24T05:47:27.729Z,99988.75
2022-11-24T05:50:29.398Z,99992.84
2022-11-24T05:53:31.030Z,99998.69
2022-11-24T05:56:32.623Z,99991.66
2022-11-24T05:59:34.546Z,100001.94
2022-11-24T06:02:36.252Z,100011.78
2022-11-24T06:05:38.249Z,100015.47
2022-11-24T06:08:39.898Z,100015.34
2022-11-24T06:11:41.691Z,100020.59
2022-11-24T06:14:43.378Z,100026.25
2022-11-24T06:17:52.285Z,100019.53
2022-11-24T06:21:09.784Z,100027.56
2022-11-24T06:24:12.796Z,100038.66
2022-11-24T06:27:14.591Z,100037.56
2022-11-24T06:30:18.263Z,100049.22
2022-11-24T06:33:20.474Z,100049.88
2022-11-24T06:36:22.390Z,100054.28
2022-11-24T06:39:24.191Z,100060.22
2022-11-24T06:42:25.771Z,100063.16
2022-11-24T06:45:30.493Z,100065.69
2022-11-24T06:48:33.913Z,100066.44
2022-11-24T06:51:35.685Z,100059.25
2022-11-24T06:54:37.528Z,100066.34
2022-11-24T06:57:39.214Z,100074.53
2022-11-24T07:00:40.918Z,100074.91
2022-11-24T07:03:42.742Z,100081.13
2022-11-24T07:06:45.002Z,100079.19
2022-11-24T07:09:46.846Z,100090.31
2022-11-24T07:12:48.810Z,100088.91
2022-11-24T07:15:50.897Z,100091.44
2022-11-24T07:18:54.054Z,100097.63
2022-11-24T07:21:55.806Z,100099.72
2022-11-24T07:24:57.438Z,100097.31
2022-11-24T07:27:59.896Z,100103.63
2022-11-24T07:31:09.077Z,100108.00
2022-11-24T07:34:10.984Z,100107.34
2022-11-24T07:37:12.541Z,100111.13
2022-11-24T07:40:14.764Z,100125.38
2022-11-24T07:43:20.184Z,100131.16
2022-11-24T07:46:22.210Z,100139.31
2022-11-24T07:49:24.123Z,100143.28
2022-11-24T07:52:26.868Z,100139.81
2022-11-24T07:55:28.554Z,100145.84
2022-11-24T07:58:33.114Z,100151.91
2022-11-24T08:01:35.186Z,100148.78
2022-11-24T08:04:37.230Z,100151.41
2022-11-24T08:07:39.352Z,100156.91
2022-11-24T08:10:41.012Z,100160.06
2022-11-24T08:13:43.245Z,100162.66
2022-11-24T08:16:44.862Z,100165.13
2022-11-24T08:19:46.505Z,100169.16
2022-11-24T08:22:48.166Z,100181.81
2022-11-24T08:25:54.154Z,100189.22
2022-11-24T08:28:59.505Z,100189.78
2022-11-24T08:32:01.127Z,100195.00
2022-11-24T08:35:13.868Z,100187.59
2022-11-24T08:38:17.325Z,100192.94
2022-11-24T08:41:19.053Z,100193.44
2022-11-24T08:44:20.672Z,100191.94
2022-11-24T08:47:22.862Z,100188.63
2022-11-24T08:50:26.374Z,100196.63
2022-11-24T08:53:28.362Z,100201.25
2022-11-24T08:56:32.545Z,100195.50
2022-11-24T08:59:34.323Z,100198.25
2022-11-24T09:02:36.137Z,100194.34
2022-11-24T09:05:53.703Z,100198.19
2022-11-24T09:08:55.726Z,100200.25
2022-11-24T09:11:57.411Z,100195.63
2022-11-24T09:14:59.139Z,100200.13
2022-11-24T09:18:00.729Z,100195.44
2022-11-24T09:21:09.572Z,100198.97
2022-11-24T09:24:11.397Z,100193.47
2022-11-24T09:27:13.017Z,100201.59
2022-11-24T09:30:16.034Z,100202.16
2022-11-24T09:33:17.755Z,100199.19
2022-11-24T09:36:20.419Z,100205.34
2022-11-24T09:39:22.079Z,100209.25
2022-11-24T09:42:35.846Z,100212.28
2022-11-24T09:46:05.389Z,100215.13
2022-11-24T09:49:14.100Z,100214.28
2022-11-24T09:52:29.134Z,100218.75
2022-11-24T09:55:55.184Z,100219.38
2022-11-24T09:59:17.799Z,100222.06
2022-11-24T10:02:19.486Z,100211.84
2022-11-24T10:05:26.036Z,100210.56
2022-11-24T10:08:39.882Z,100206.47
2022-11-24T10:11:52.205Z,100211.94
2022-11-24T10:15:05.867Z,100211.78
2022-11-24T10:18:31.394Z,100211.28
2022-11-24T10:22:07.201Z,100220.84
2022-11-24T10:25:17.085Z,100221.19
2022-11-24T10:28:19.151Z,100217.69
2022-11-24T10:31:35.264Z,100215.28
2022-11-24T10:34:41.595Z,100226.97
2022-11-24T10:38:21.688Z,100223.72
2022-11-24T10:41:42.752Z,100215.19
2022-11-24T10:44:44.449Z,100221.63
2022-11-24T10:47:46.854Z,100223.47
2022-11-24T10:50:48.607Z,100222.88
2022-11-24T10:53:55.228Z,100221.50
2022-11-24T10:56:56.795Z,100234.63
2022-11-24T10:59:59.260Z,100233.59
2022-11-24T11:03:17.548Z,100233.78
2022-11-24T11:06:30.201Z,100233.50
2022-11-24T11:09:31.909Z,100228.34
2022-11-24T11:12:44.084Z,100227.75
2022-11-24T11:15:46.411Z,100231.81
2022-11-24T11:18:49.357Z,100236.22
2022-11-24T11:22:19.950Z,100235.44
2022-11-24T11:25:30.958Z,100230.97
2022-11-24T11:28:32.703Z,100231.19
2022-11-24T11:31:35.673Z,100226.19
2022-11-24T11:34:37.770Z,100241.47
2022-11-24T11:37:40.363Z,100233.19
2022-11-24T11:40:43.776Z,100231.34
2022-11-24T11:43:47.013Z,100234.38
2022-11-24T11:46:48.757Z,100233.38
2022-11-24T11:49:50.841Z,100244.88
2022-11-24T11:53:23.403Z,100245.47
2022-11-24T11:56:30.388Z,100242.75
2022-11-24T11:59:41.849Z,100250.75
2022-11-24T12:03:11.428Z,100259.28
2022-11-24T12:06:34.251Z,100251.59
2022-11-24T12:10:03.038Z,100255.97
2022-11-24T12:13:33.728Z,100257.84
2022-11-24T12:16:45.542Z,100257.53
2022-11-24T12:20:02.270Z,100266.31
2022-11-24T12:23:31.202Z,100271.00
2022-11-24T12:26:53.104Z,100275.28
2022-11-24T12:30:12.645Z,100266.81
2022-11-24T12:33:34.166Z,100269.47
2022-11-24T12:36:41.269Z,100270.91
2022-11-24T12:39:56.983Z,100269.25
2022-11-24T12:43:20.102Z,100277.44
2022-11-24T12:46:47.135Z,100277.94
2022-11-24T12:50:07.216Z,100279.00
2022-11-24T12:53:15.982Z,100278.31
2022-11-24T12:56:23.379Z,100278.91
2022-11-24T12:59:54.311Z,100279.59
2022-11-24T13:03:12.370Z,100281.03
2022-11-24T13:06:27.378Z,100291.38
2022-11-24T13:09:29.011Z,100277.34
2022-11-24T13:12:30.753Z,100284.75
2022-11-24T13:16:07.095Z,100284.25
2022-11-24T13:19:19.631Z,100284.13
2022-11-24T13:22:25.668Z,100289.50
2022-11-24T13:25:35.075Z,100284.75
2022-11-24T13:29:13.386Z,100293.22
2022-11-24T13:32:31.968Z,100293.97
2022-11-24T13:35:33.579Z,100290.00
2022-11-24T13:39:02.393Z,100295.06
2022-11-24T13:42:04.110Z,100298.78
2022-11-24T13:45:45.052Z,100300.44
2022-11-24T13:48:46.983Z,100300.22
2022-11-24T13:51:48.539Z,100305.88
2022-11-24T13:54:50.461Z,100307.44
2022-11-24T13:57:56.872Z,100323.13
2022-11-24T14:01:12.052Z,100322.13
2022-11-24T14:04:32.507Z,100331.47
2022-11-24T14:07:34.732Z,100325.16
2022-11-24T14:10:37.973Z,100328.47
2022-11-24T14:13:39.578Z,100327.50
2022-11-24T14:16:41.142Z,100324.56
2022-11-24T14:19:44.742Z,100329.25
2022-11-24T14:22:46.427Z,100329.16
2022-11-24T14:25:52.656Z,100330.38
2022-11-24T14:29:03.708Z,100337.47
2022-11-24T14:32:16.333Z,100344.94
2022-11-24T14:35:29.989Z,100351.31
2022-11-24T14:38:32.051Z,100350.72
2022-11-24T14:41:33.916Z,100356.19
2022-11-24T14:44:47.954Z,100366.47
2022-11-24T14:47:49.874Z,100354.75
2022-11-24T14:50:51.974Z,100352.66
2022-11-24T14:54:01.048Z,100361.88
2022-11-24T14:57:05.277Z,100371.94
2022-11-24T15:00:15.338Z,100373.56
2022-11-24T15:03:19.786Z,100379.38
2022-11-24T15:06:21.464Z,100378.19
2022-11-24T15:09:32.847Z,100385.75
2022-11-24T15:12:39.405Z,100380.44
2022-11-24T15:15:49.254Z,100384.63
2022-11-24T15:19:03.310Z,100398.59
2022-11-24T15:22:36.111Z,100399.66
2022-11-24T15:25:37.755Z,100385.63
2022-11-24T15:28:40.103Z,100413.22
2022-11-24T15:31:45.245Z,100411.09
2022-11-24T15:34:49.385Z,100417.97
2022-11-24T15:37:52.364Z,100425.50
2022-11-24T15:40:57.680Z,100429.47
2022-11-24T15:43:59.403Z,100432.22
2022-11-24T15:47:01.056Z,100434.41
2022-11-24T15:50:02.811Z,100433.66
2022-11-24T15:53:05.662Z,100441.53
2022-11-24T15:56:13.371Z,100439.19
2022-11-24T15:59:20.249Z,100437.13
2022-11-24T16:02:22.675Z,100433.63
2022-11-24T16:05:24.312Z,100442.47
2022-11-24T16:08:26.067Z,100449.41
2022-11-24T16:11:27.717Z,100450.44
2022-11-24T16:14:30.024Z,100446.78
2022-11-24T16:17:31.636Z,100449.59
2022-11-24T16:20:35.967Z,100453.06
2022-11-24T16:23:38.129Z,100453.56
2022-11-24T16:26:39.779Z,100447.13
2022-11-24T16:29:41.454Z,100446.63
2022-11-24T16:32:43.321Z,100446.22
2022-11-24T16:35:48.501Z,100448.16
2022-11-24T16:38:50.463Z,100449.66
2022-11-24T16:41:52.294Z,100455.69
2022-11-24T16:44:54.145Z,100457.72
2022-11-24T16:47:55.922Z,100453.88
2022-11-24T16:51:05.690Z,100463.56
2022-11-24T16:54:08.963Z,100464.88
2022-11-24T16:57:14.957Z,100470.94
2022-11-24T17:00:17.491Z,100478.41
2022-11-24T17:03:19.122Z,100491.84
2022-11-24T17:06:21.131Z,100485.38
2022-11-24T17:09:23.193Z,100486.03
2022-11-24T17:12:24.841Z,100497.34
2022-11-24T17:15:33.604Z,100495.09
2022-11-24T17:18:36.783Z,100500.63
2022-11-24T17:21:38.737Z,100508.28
2022-11-24T17:24:40.338Z,100506.19
2022-11-24T17:27:41.932Z,100515.59
2022-11-24T17:30:43.556Z,100509.63
2022-11-24T17:33:45.230Z,100509.41
2022-11-24T17:36:47.109Z,100518.84
2022-11-24T17:40:05.999Z,100508.97
2022-11-24T17:43:11.644Z,100516.81
2022-11-24T17:46:13.362Z,100519.66
2022-11-24T17:49:15.157Z,100515.25
2022-11-24T17:52:18.154Z,100525.75
2022-11-24T17:55:19.939Z,100523.16
2022-11-24T17:58:22.154Z,100531.59
2022-11-24T18:01:24.363Z,100536.31
2022-11-24T18:04:26.304Z,100534.22
2022-11-24T18:07:28.032Z,100533.66
2022-11-24T18:10:31.901Z,100536.00
2022-11-24T18:13:55.625Z,100539.94
2022-11-24T18:16:55.728Z,100530.25
2022-11-24T18:19:57.549Z,100545.16
2022-11-24T18:23:05.968Z,100547.28
2022-11-24T18:26:10.330Z,100546.78
2022-11-24T18:29:12.278Z,100553.34
2022-11-24T18:32:14.156Z,100551.50
2022-11-24T18:35:16.254Z,100550.22
2022-11-24T18:38:18.294Z,100556.22
2022-11-24T18:41:21.071Z,100557.81
2022-11-24T18:44:22.649Z,100569.06
2022-11-24T18:47:24.540Z,100569.06
2022-11-24T18:50:26.555Z,100573.53
2022-11-24T18:53:28.918Z,100568.84
2022-11-24T18:56:30.901Z,100580.09
2022-11-24T18:59:32.986Z,100579.81
2022-11-24T19:02:34.894Z,100576.69
2022-11-24T19:05:36.795Z,100589.25
2022-11-24T19:08:38.842Z,100584.81
2022-11-24T19:11:43.448Z,100597.59
2022-11-24T19:14:45.337Z,100597.88
2022-11-24T19:17:47.525Z,100601.50
2022-11-24T19:20:49.702Z,100602.28
2022-11-24T19:23:51.691Z,100610.91
2022-11-24T19:26:54.420Z,100613.78
2022-11-24T19:29:56.388Z,100604.91
2022-11-24T19:32:58.343Z,100616.09
2022-11-24T19:36:09.081Z,100623.72
2022-11-24T19:39:15.494Z,100626.56
2022-11-24T19:42:18.299Z,100625.28
2022-11-24T19:45:20.178Z,100633.91
2022-11-24T19:48:22.033Z,100638.63
2022-11-24T19:51:35.545Z,100637.56
2022-11-24T19:54:37.670Z,100639.16
2022-11-24T19:57:40.226Z,100641.75
2022-11-24T20:00:41.933Z,100643.63
2022-11-24T20:03:45.441Z,100650.41
2022-11-24T20:06:48.112Z,100653.00
2022-11-24T20:09:49.978Z,100657.47
2022-11-24T20:12:51.497Z,100654.31
2022-11-24T20:15:53.393Z,100662.16
2022-11-24T20:19:00.401Z,100670.28
2022-11-24T20:22:02.399Z,100674.19
2022-11-24T20:25:04.447Z,100674.19
2022-11-24T20:28:06.465Z,100675.50
2022-11-24T20:31:14.900Z,100676.78
2022-11-24T20:34:17.145Z,100679.41
2022-11-24T20:37:18.917Z,100690.66
2022-11-24T20:40:20.863Z,100693.00
2022-11-24T20:43:22.698Z,100697.16
2022-11-24T20:46:27.369Z,100695.06
2022-11-24T20:49:29.779Z,100696.91
2022-11-24T20:52:31.665Z,100710.75
2022-11-24T20:55:34.467Z,100716.44
2022-11-24T20:58:37.463Z,100720.34
2022-11-24T21:01:42.800Z,100716.94
2022-11-24T21:04:44.715Z,100718.50
2022-11-24T21:07:46.694Z,100722.63
2022-11-24T21:10:56.013Z,100721.50
2022-11-24T21:13:58.102Z,100726.13
2022-11-24T21:16:59.918Z,100734.75
2022-11-24T21:20:01.706Z,100717.84
2022-11-24T21:23:04.998Z,100729.31
2022-11-24T21:26:12.988Z,100731.31
2022-11-24T21:29:22.261Z,100735.38
2022-11-24T21:32:25.086Z,100748.13
2022-11-24T21:35:26.690Z,100738.44
2022-11-24T21:38:28.278Z,100749.66
2022-11-24T21:41:32.785Z,100747.59
2022-11-24T21:44:35.018Z,100751.31
2022-11-24T21:47:37.625Z,100755.28
2022-11-24T21:50:39.242Z,100749.00
2022-11-24T21:53:41.586Z,100755.88
2022-11-24T21:56:43.219Z,100757.16
2022-11-24T21:59:45.064Z,100751.97
2022-11-24T22:02:47.339Z,100766.09
2022-11-24T22:05:56.414Z,100770.22
2022-11-24T22:08:57.982Z,100780.13
2022-11-24T22:12:00.610Z,100776.66
2022-11-24T22:15:02.236Z,100782.78
2022-11-24T22:18:05.077Z,100775.44
2022-11-24T22:21:10.260Z,100773.34
2022-11-24T22:24:11.965Z,100787.53
2022-11-24T22:27:13.543Z,100790.38
2022-11-24T22:30:15.380Z,100783.84
2022-11-24T22:33:16.976Z,100788.50
2022-11-24T22:36:22.638Z,100789.78
2022-11-24T22:39:24.241Z,100779.56
2022-11-24T22:42:25.869Z,100793.41
2022-11-24T22:45:27.457Z,100797.03
2022-11-24T22:48:29.087Z,100803.22
2022-11-24T22:51:33.032Z,100800.09
2022-11-24T22:54:34.940Z,100801.69
2022-11-24T22:57:36.717Z,100811.59
2022-11-24T23:00:38.874Z,100806.81
2022-11-24T23:03:40.907Z,100823.38
2022-11-24T23:06:43.038Z,100821.50
2022-11-24T23:09:44.845Z,100828.53
2022-11-24T23:12:46.430Z,100832.75
2022-11-24T23:15:47.969Z,100842.91
2022-11-24T23:18:53.730Z,100836.91
2022-11-24T23:21:55.701Z,100842.00
2022-11-24T23:24:57.301Z,100856.34
2022-11-24T23:27:58.912Z,100849.50
2022-11-24T23:31:04.982Z,100861.75
2022-11-24T23:34:06.732Z,100864.03
2022-11-24T23:37:08.409Z,100866.25
2022-11-24T23:40:10.341Z,100870.06
2022-11-24T23:43:11.887Z,100875.34
2022-11-24T23:46:20.257Z,100874.84
2022-11-24T23:49:21.850Z,100882.38
2022-11-24T23:52:23.472Z,100882.38
2022-11-24T23:55:25.057Z,100874.19
2022-11-24T23:58:26.751Z,100875.16
